Terminal Aerodrome Forecast
Issued by NWS

Home | Current Version | Previous Version | Text Only | Print | Product List | Glossary On
Versions: 1 2 3 4 5 6 7 8 9 10 11 12
000
FTUS44 KBMX 272329
TAFANB
TAF
KANB 272329Z 2800/2824 06004KT P6SM SCT060
      TEMPO 2808/2812 4SM BR SCT010
     FM281500 08007KT P6SM SCT040=

USA.gov is the U.S. government's official web portal to all federal, state and local government web resources and services.